sensor_id;sensor_type;location;lat;lon;timestamp;pressure;altitude;pressure_sealevel;temperature;humidity
49825;BME280;35714;55.708;37.478;2023-04-08T00:01:07;100470.28;;;6.63;32.41
49825;BME280;35714;55.708;37.478;2023-04-08T00:03:33;100474.03;;;6.62;32.42
49825;BME280;35714;55.708;37.478;2023-04-08T00:05:58;100470.00;;;6.58;32.37
49825;BME280;35714;55.708;37.478;2023-04-08T00:08:27;100470.19;;;6.56;32.75
49825;BME280;35714;55.708;37.478;2023-04-08T00:10:52;100471.38;;;6.54;32.65
49825;BME280;35714;55.708;37.478;2023-04-08T00:13:18;100471.56;;;6.52;32.59
49825;BME280;35714;55.708;37.478;2023-04-08T00:15:44;100474.63;;;6.49;32.79
49825;BME280;35714;55.708;37.478;2023-04-08T00:18:10;100470.09;;;6.49;32.93
49825;BME280;35714;55.708;37.478;2023-04-08T00:20:35;100468.59;;;6.47;32.98
49825;BME280;35714;55.708;37.478;2023-04-08T00:23:01;100465.06;;;6.46;33.14
49825;BME280;35714;55.708;37.478;2023-04-08T00:25:27;100458.72;;;6.39;33.18
49825;BME280;35714;55.708;37.478;2023-04-08T00:27:52;100465.44;;;6.43;33.32
49825;BME280;35714;55.708;37.478;2023-04-08T00:30:18;100460.41;;;6.40;33.41
49825;BME280;35714;55.708;37.478;2023-04-08T00:32:44;100467.81;;;6.38;33.24
49825;BME280;35714;55.708;37.478;2023-04-08T00:35:10;100476.56;;;6.40;33.53
49825;BME280;35714;55.708;37.478;2023-04-08T00:37:37;100473.22;;;6.38;33.81
49825;BME280;35714;55.708;37.478;2023-04-08T00:40:03;100477.31;;;6.34;33.81
49825;BME280;35714;55.708;37.478;2023-04-08T00:42:29;100467.72;;;6.31;33.92
49825;BME280;35714;55.708;37.478;2023-04-08T00:44:56;100467.25;;;6.28;33.97
49825;BME280;35714;55.708;37.478;2023-04-08T00:47:22;100471.13;;;6.25;33.97
49825;BME280;35714;55.708;37.478;2023-04-08T00:49:48;100458.88;;;6.23;34.24
49825;BME280;35714;55.708;37.478;2023-04-08T00:52:13;100468.78;;;6.22;34.40
49825;BME280;35714;55.708;37.478;2023-04-08T00:54:40;100478.75;;;6.22;34.31
49825;BME280;35714;55.708;37.478;2023-04-08T00:57:06;100468.69;;;6.16;34.25
49825;BME280;35714;55.708;37.478;2023-04-08T00:59:32;100469.50;;;6.16;34.30
49825;BME280;35714;55.708;37.478;2023-04-08T01:07:48;100464.03;;;6.09;34.45
49825;BME280;35714;55.708;37.478;2023-04-08T01:10:22;100475.84;;;6.08;34.74
49825;BME280;35714;55.708;37.478;2023-04-08T01:12:54;100469.94;;;6.05;34.62
49825;BME280;35714;55.708;37.478;2023-04-08T01:15:21;100470.97;;;6.04;34.58
49825;BME280;35714;55.708;37.478;2023-04-08T01:17:47;100474.22;;;5.99;34.79
49825;BME280;35714;55.708;37.478;2023-04-08T01:20:15;100467.47;;;5.95;34.99
49825;BME280;35714;55.708;37.478;2023-04-08T01:25:29;100472.84;;;5.95;35.16
49825;BME280;35714;55.708;37.478;2023-04-08T01:27:58;100465.78;;;5.94;35.18
49825;BME280;35714;55.708;37.478;2023-04-08T01:30:25;100478.22;;;5.95;35.24
49825;BME280;35714;55.708;37.478;2023-04-08T01:32:54;100473.03;;;5.93;35.36
49825;BME280;35714;55.708;37.478;2023-04-08T01:35:22;100475.91;;;5.92;35.60
49825;BME280;35714;55.708;37.478;2023-04-08T01:37:50;100474.22;;;5.91;35.49
49825;BME280;35714;55.708;37.478;2023-04-08T01:40:18;100475.25;;;5.90;35.67
49825;BME280;35714;55.708;37.478;2023-04-08T01:42:46;100469.00;;;5.89;35.69
49825;BME280;35714;55.708;37.478;2023-04-08T01:45:13;100471.88;;;5.88;35.69
49825;BME280;35714;55.708;37.478;2023-04-08T01:47:40;100479.47;;;5.84;35.69
49825;BME280;35714;55.708;37.478;2023-04-08T01:50:08;100478.00;;;5.82;35.89
49825;BME280;35714;55.708;37.478;2023-04-08T01:52:34;100477.50;;;5.78;36.00
49825;BME280;35714;55.708;37.478;2023-04-08T01:55:03;100467.94;;;5.75;36.16
49825;BME280;35714;55.708;37.478;2023-04-08T01:57:31;100473.31;;;5.75;36.27
49825;BME280;35714;55.708;37.478;2023-04-08T02:00:09;100473.97;;;5.77;36.17
49825;BME280;35714;55.708;37.478;2023-04-08T02:02:50;100479.06;;;5.72;36.24
49825;BME280;35714;55.708;37.478;2023-04-08T02:05:18;100483.09;;;5.68;36.31
49825;BME280;35714;55.708;37.478;2023-04-08T02:07:43;100481.41;;;5.67;36.25
49825;BME280;35714;55.708;37.478;2023-04-08T02:10:11;100485.16;;;5.66;36.44
49825;BME280;35714;55.708;37.478;2023-04-08T02:12:38;100475.38;;;5.65;36.53
49825;BME280;35714;55.708;37.478;2023-04-08T02:15:10;100482.81;;;5.63;36.61
49825;BME280;35714;55.708;37.478;2023-04-08T02:17:49;100477.25;;;5.65;36.88
49825;BME280;35714;55.708;37.478;2023-04-08T02:20:22;100476.75;;;5.61;36.91
49825;BME280;35714;55.708;37.478;2023-04-08T02:23:01;100475.44;;;5.57;36.90
49825;BME280;35714;55.708;37.478;2023-04-08T02:25:29;100474.09;;;5.53;37.14
49825;BME280;35714;55.708;37.478;2023-04-08T02:27:55;100477.66;;;5.53;36.79
49825;BME280;35714;55.708;37.478;2023-04-08T02:30:22;100474.09;;;5.53;37.11
49825;BME280;35714;55.708;37.478;2023-04-08T02:32:52;100482.34;;;5.51;37.29
49825;BME280;35714;55.708;37.478;2023-04-08T02:35:19;100479.47;;;5.53;37.29
49825;BME280;35714;55.708;37.478;2023-04-08T02:37:45;100489.25;;;5.54;37.36
49825;BME280;35714;55.708;37.478;2023-04-08T02:40:31;100485.50;;;5.55;37.31
49825;BME280;35714;55.708;37.478;2023-04-08T02:42:57;100492.09;;;5.52;37.80
49825;BME280;35714;55.708;37.478;2023-04-08T02:45:34;100497.97;;;5.56;37.47
49825;BME280;35714;55.708;37.478;2023-04-08T02:48:01;100490.25;;;5.53;37.39
49825;BME280;35714;55.708;37.478;2023-04-08T02:50:26;100488.59;;;5.52;37.25
49825;BME280;35714;55.708;37.478;2023-04-08T02:52:52;100487.56;;;5.53;37.30
49825;BME280;35714;55.708;37.478;2023-04-08T02:55:18;100486.91;;;5.51;37.24
49825;BME280;35714;55.708;37.478;2023-04-08T02:57:45;100488.94;;;5.49;37.21
49825;BME280;35714;55.708;37.478;2023-04-08T03:00:11;100491.63;;;5.49;37.38
49825;BME280;35714;55.708;37.478;2023-04-08T03:02:37;100498.84;;;5.48;37.43
49825;BME280;35714;55.708;37.478;2023-04-08T03:05:03;100492.63;;;5.48;37.60
49825;BME280;35714;55.708;37.478;2023-04-08T03:07:30;100490.94;;;5.47;37.59
49825;BME280;35714;55.708;37.478;2023-04-08T03:09:56;100491.97;;;5.46;37.39
49825;BME280;35714;55.708;37.478;2023-04-08T03:12:22;100487.59;;;5.45;37.50
49825;BME280;35714;55.708;37.478;2023-04-08T03:14:49;100494.66;;;5.46;37.59
49825;BME280;35714;55.708;37.478;2023-04-08T03:17:15;100488.94;;;5.49;37.62
49825;BME280;35714;55.708;37.478;2023-04-08T03:19:41;100495.63;;;5.53;37.49
49825;BME280;35714;55.708;37.478;2023-04-08T03:22:06;100501.66;;;5.55;37.38
49825;BME280;35714;55.708;37.478;2023-04-08T03:24:34;100503.16;;;5.57;37.56
49825;BME280;35714;55.708;37.478;2023-04-08T03:27:00;100507.38;;;5.60;37.10
49825;BME280;35714;55.708;37.478;2023-04-08T03:29:26;100488.22;;;5.55;37.23
49825;BME280;35714;55.708;37.478;2023-04-08T03:31:51;100496.91;;;5.65;37.60
49825;BME280;35714;55.708;37.478;2023-04-08T03:34:17;100508.84;;;5.71;37.29
49825;BME280;35714;55.708;37.478;2023-04-08T03:36:43;100503.94;;;5.74;37.34
49825;BME280;35714;55.708;37.478;2023-04-08T03:39:08;100495.31;;;5.79;37.55
49825;BME280;35714;55.708;37.478;2023-04-08T03:41:34;100492.81;;;5.77;37.08
49825;BME280;35714;55.708;37.478;2023-04-08T03:44:00;100499.47;;;5.90;37.11
49825;BME280;35714;55.708;37.478;2023-04-08T03:46:26;100501.81;;;5.93;37.34
49825;BME280;35714;55.708;37.478;2023-04-08T03:48:51;100502.31;;;5.96;37.04
49825;BME280;35714;55.708;37.478;2023-04-08T03:51:17;100500.09;;;6.00;37.10
49825;BME280;35714;55.708;37.478;2023-04-08T03:53:43;100499.09;;;6.01;37.07
49825;BME280;35714;55.708;37.478;2023-04-08T03:56:08;100495.88;;;6.06;36.97
49825;BME280;35714;55.708;37.478;2023-04-08T03:58:34;100505.44;;;6.08;36.94
49825;BME280;35714;55.708;37.478;2023-04-08T04:00:59;100507.09;;;6.09;36.93
49825;BME280;35714;55.708;37.478;2023-04-08T04:03:25;100507.09;;;6.09;36.92
49825;BME280;35714;55.708;37.478;2023-04-08T04:05:51;100507.09;;;6.09;37.00
49825;BME280;35714;55.708;37.478;2023-04-08T04:08:17;100511.31;;;6.12;36.87
49825;BME280;35714;55.708;37.478;2023-04-08T04:10:43;100512.59;;;6.16;36.90
49825;BME280;35714;55.708;37.478;2023-04-08T04:13:09;100506.03;;;6.19;36.96
49825;BME280;35714;55.708;37.478;2023-04-08T04:15:38;100507.34;;;6.23;37.13
49825;BME280;35714;55.708;37.478;2023-04-08T04:18:04;100510.69;;;6.25;36.81
49825;BME280;35714;55.708;37.478;2023-04-08T04:20:30;100505.41;;;6.31;36.92
49825;BME280;35714;55.708;37.478;2023-04-08T04:22:56;100505.16;;;6.41;36.73
49825;BME280;35714;55.708;37.478;2023-04-08T04:25:22;100515.34;;;6.54;37.07
49825;BME280;35714;55.708;37.478;2023-04-08T04:27:47;100511.75;;;6.62;36.69
49825;BME280;35714;55.708;37.478;2023-04-08T04:30:13;100511.97;;;6.75;36.41
49825;BME280;35714;55.708;37.478;2023-04-08T04:32:43;100522.28;;;6.86;36.63
49825;BME280;35714;55.708;37.478;2023-04-08T04:35:11;100513.94;;;6.96;36.38
49825;BME280;35714;55.708;37.478;2023-04-08T04:37:37;100519.25;;;7.04;36.21
49825;BME280;35714;55.708;37.478;2023-04-08T04:40:04;100525.38;;;7.13;36.05
49825;BME280;35714;55.708;37.478;2023-04-08T04:42:30;100523.00;;;7.18;36.08
49825;BME280;35714;55.708;37.478;2023-04-08T04:44:56;100522.22;;;7.25;36.01
49825;BME280;35714;55.708;37.478;2023-04-08T04:47:22;100523.16;;;7.32;36.15
49825;BME280;35714;55.708;37.478;2023-04-08T04:49:47;100528.28;;;7.41;36.07
49825;BME280;35714;55.708;37.478;2023-04-08T04:52:13;100519.63;;;7.46;36.13
49825;BME280;35714;55.708;37.478;2023-04-08T04:54:38;100531.97;;;7.55;35.62
49825;BME280;35714;55.708;37.478;2023-04-08T04:57:04;100526.84;;;7.61;35.66
49825;BME280;35714;55.708;37.478;2023-04-08T04:59:30;100529.38;;;7.62;35.71
49825;BME280;35714;55.708;37.478;2023-04-08T05:01:56;100526.09;;;7.67;35.79
49825;BME280;35714;55.708;37.478;2023-04-08T05:04:23;100529.72;;;7.74;35.63
49825;BME280;35714;55.708;37.478;2023-04-08T05:06:48;100531.69;;;7.80;35.33
49825;BME280;35714;55.708;37.478;2023-04-08T05:09:14;100538.34;;;7.84;35.39
49825;BME280;35714;55.708;37.478;2023-04-08T05:11:40;100537.59;;;7.90;35.35
49825;BME280;35714;55.708;37.478;2023-04-08T05:14:06;100546.00;;;7.95;35.45
49825;BME280;35714;55.708;37.478;2023-04-08T05:16:32;100535.06;;;8.04;35.37
49825;BME280;35714;55.708;37.478;2023-04-08T05:18:58;100543.47;;;8.16;34.96
49825;BME280;35714;55.708;37.478;2023-04-08T05:21:23;100549.63;;;8.24;35.02
49825;BME280;35714;55.708;37.478;2023-04-08T05:23:49;100547.41;;;8.35;34.68
49825;BME280;35714;55.708;37.478;2023-04-08T05:26:19;100539.88;;;8.45;35.11
49825;BME280;35714;55.708;37.478;2023-04-08T05:28:47;100552.03;;;8.56;34.45
49825;BME280;35714;55.708;37.478;2023-04-08T05:31:15;100543.78;;;8.64;34.46
49825;BME280;35714;55.708;37.478;2023-04-08T05:33:40;100545.91;;;8.69;34.28
49825;BME280;35714;55.708;37.478;2023-04-08T05:36:06;100548.06;;;8.80;34.30
49825;BME280;35714;55.708;37.478;2023-04-08T05:38:32;100557.31;;;8.92;34.18
49825;BME280;35714;55.708;37.478;2023-04-08T05:40:58;100550.34;;;9.05;34.04
49825;BME280;35714;55.708;37.478;2023-04-08T05:43:24;100552.13;;;9.19;33.90
49825;BME280;35714;55.708;37.478;2023-04-08T05:45:49;100554.66;;;9.27;33.77
49825;BME280;35714;55.708;37.478;2023-04-08T05:48:15;100566.16;;;9.36;33.56
49825;BME280;35714;55.708;37.478;2023-04-08T05:50:41;100552.66;;;9.43;33.38
49825;BME280;35714;55.708;37.478;2023-04-08T05:53:08;100551.41;;;9.38;32.97
49825;BME280;35714;55.708;37.478;2023-04-08T05:55:34;100564.28;;;9.36;33.10
49825;BME280;35714;55.708;37.478;2023-04-08T05:58:00;100553.94;;;9.47;33.10
49825;BME280;35714;55.708;37.478;2023-04-08T06:00:25;100553.59;;;9.63;33.00
49825;BME280;35714;55.708;37.478;2023-04-08T06:02:51;100553.69;;;9.83;32.83
49825;BME280;35714;55.708;37.478;2023-04-08T06:05:17;100556.50;;;10.03;32.53
49825;BME280;35714;55.708;37.478;2023-04-08T06:07:43;100552.78;;;10.24;32.23
49825;BME280;35714;55.708;37.478;2023-04-08T06:10:09;100546.81;;;10.42;31.95
49825;BME280;35714;55.708;37.478;2023-04-08T06:12:36;100553.94;;;10.70;31.92
49825;BME280;35714;55.708;37.478;2023-04-08T06:15:03;100553.09;;;11.03;31.59
49825;BME280;35714;55.708;37.478;2023-04-08T06:17:29;100563.91;;;11.43;31.37
49825;BME280;35714;55.708;37.478;2023-04-08T06:19:54;100556.25;;;11.85;30.94
49825;BME280;35714;55.708;37.478;2023-04-08T06:22:20;100557.31;;;12.30;30.13
49825;BME280;35714;55.708;37.478;2023-04-08T06:24:46;100556.13;;;12.76;29.96
49825;BME280;35714;55.708;37.478;2023-04-08T06:27:13;100553.59;;;13.25;29.28
49825;BME280;35714;55.708;37.478;2023-04-08T06:29:38;100557.75;;;13.71;28.58
49825;BME280;35714;55.708;37.478;2023-04-08T06:32:04;100552.63;;;14.12;27.87
49825;BME280;35714;55.708;37.478;2023-04-08T06:34:30;100562.59;;;14.48;27.48
49825;BME280;35714;55.708;37.478;2023-04-08T06:36:56;100556.31;;;14.90;27.10
49825;BME280;35714;55.708;37.478;2023-04-08T06:39:22;100559.31;;;15.24;25.49
49825;BME280;35714;55.708;37.478;2023-04-08T06:41:48;100554.50;;;15.55;25.65
49825;BME280;35714;55.708;37.478;2023-04-08T06:44:27;100555.59;;;16.06;25.22
49825;BME280;35714;55.708;37.478;2023-04-08T06:46:52;100553.03;;;16.45;25.02
49825;BME280;35714;55.708;37.478;2023-04-08T06:49:18;100554.44;;;16.93;24.30
49825;BME280;35714;55.708;37.478;2023-04-08T06:51:43;100549.66;;;17.40;23.81
49825;BME280;35714;55.708;37.478;2023-04-08T06:54:09;100556.44;;;17.76;23.04
49825;BME280;35714;55.708;37.478;2023-04-08T06:56:35;100556.72;;;18.19;23.17
49825;BME280;35714;55.708;37.478;2023-04-08T06:59:02;100555.94;;;18.51;21.90
49825;BME280;35714;55.708;37.478;2023-04-08T07:01:28;100557.25;;;18.75;22.05
49825;BME280;35714;55.708;37.478;2023-04-08T07:03:54;100559.19;;;19.07;21.63
49825;BME280;35714;55.708;37.478;2023-04-08T07:06:21;100561.00;;;19.34;21.15
49825;BME280;35714;55.708;37.478;2023-04-08T07:08:46;100553.50;;;19.72;20.86
49825;BME280;35714;55.708;37.478;2023-04-08T07:11:12;100555.94;;;20.22;20.84
49825;BME280;35714;55.708;37.478;2023-04-08T07:13:38;100559.56;;;20.58;20.17
49825;BME280;35714;55.708;37.478;2023-04-08T07:16:03;100547.16;;;20.55;19.38
49825;BME280;35714;55.708;37.478;2023-04-08T07:18:30;100530.63;;;20.50;19.95
49825;BME280;35714;55.708;37.478;2023-04-08T07:20:56;100547.69;;;20.58;19.48
49825;BME280;35714;55.708;37.478;2023-04-08T07:23:22;100560.38;;;20.53;19.59
49825;BME280;35714;55.708;37.478;2023-04-08T07:25:49;100550.44;;;20.52;19.42
49825;BME280;35714;55.708;37.478;2023-04-08T07:28:18;100549.13;;;20.76;19.13
49825;BME280;35714;55.708;37.478;2023-04-08T07:30:44;100551.59;;;20.98;18.83
49825;BME280;35714;55.708;37.478;2023-04-08T07:33:10;100551.06;;;20.85;18.84
49825;BME280;35714;55.708;37.478;2023-04-08T07:35:35;100553.53;;;20.82;19.17
49825;BME280;35714;55.708;37.478;2023-04-08T07:38:01;100548.88;;;20.72;19.27
49825;BME280;35714;55.708;37.478;2023-04-08T07:40:27;100544.97;;;20.73;19.44
49825;BME280;35714;55.708;37.478;2023-04-08T07:42:52;100553.25;;;20.73;18.98
49825;BME280;35714;55.708;37.478;2023-04-08T07:45:19;100551.06;;;20.80;18.89
49825;BME280;35714;55.708;37.478;2023-04-08T07:47:44;100554.09;;;20.99;19.29
49825;BME280;35714;55.708;37.478;2023-04-08T07:50:10;100553.75;;;21.37;18.89
49825;BME280;35714;55.708;37.478;2023-04-08T07:52:36;100547.31;;;21.77;18.41
49825;BME280;35714;55.708;37.478;2023-04-08T07:55:01;100549.13;;;22.03;17.67
49825;BME280;35714;55.708;37.478;2023-04-08T07:57:28;100554.53;;;22.23;17.93
49825;BME280;35714;55.708;37.478;2023-04-08T07:59:55;100555.63;;;22.32;17.57
49825;BME280;35714;55.708;37.478;2023-04-08T08:02:20;100555.09;;;22.20;17.17
49825;BME280;35714;55.708;37.478;2023-04-08T08:04:46;100554.00;;;22.16;17.38
49825;BME280;35714;55.708;37.478;2023-04-08T08:07:11;100548.72;;;22.30;17.29
49825;BME280;35714;55.708;37.478;2023-04-08T08:09:37;100547.84;;;22.74;17.19
49825;BME280;35714;55.708;37.478;2023-04-08T08:12:03;100542.59;;;23.36;16.93
49825;BME280;35714;55.708;37.478;2023-04-08T08:14:28;100538.03;;;23.94;16.12
49825;BME280;35714;55.708;37.478;2023-04-08T08:16:54;100555.03;;;24.68;15.98
49825;BME280;35714;55.708;37.478;2023-04-08T08:19:20;100556.59;;;25.08;15.39
49825;BME280;35714;55.708;37.478;2023-04-08T08:21:45;100558.25;;;25.22;14.99
49825;BME280;35714;55.708;37.478;2023-04-08T08:24:11;100553.91;;;25.16;14.93
49825;BME280;35714;55.708;37.478;2023-04-08T08:26:37;100556.44;;;25.32;14.88
49825;BME280;35714;55.708;37.478;2023-04-08T08:29:03;100556.66;;;25.49;14.32
49825;BME280;35714;55.708;37.478;2023-04-08T08:31:29;100545.34;;;25.60;14.24
49825;BME280;35714;55.708;37.478;2023-04-08T08:33:55;100541.84;;;25.96;13.99
49825;BME280;35714;55.708;37.478;2023-04-08T08:36:21;100544.53;;;26.01;13.63
49825;BME280;35714;55.708;37.478;2023-04-08T08:38:46;100534.31;;;25.96;13.23
49825;BME280;35714;55.708;37.478;2023-04-08T08:41:12;100542.16;;;25.66;13.42
49825;BME280;35714;55.708;37.478;2023-04-08T08:43:38;100533.94;;;25.47;13.34
49825;BME280;35714;55.708;37.478;2023-04-08T08:46:07;100541.44;;;25.33;13.24
49825;BME280;35714;55.708;37.478;2023-04-08T08:48:35;100547.09;;;25.42;13.73
49825;BME280;35714;55.708;37.478;2023-04-08T08:51:10;100543.09;;;25.75;13.45
49825;BME280;35714;55.708;37.478;2023-04-08T08:53:36;100531.66;;;26.05;13.22
49825;BME280;35714;55.708;37.478;2023-04-08T08:56:02;100529.09;;;26.31;13.56
49825;BME280;35714;55.708;37.478;2023-04-08T08:58:28;100526.81;;;26.70;13.25
49825;BME280;35714;55.708;37.478;2023-04-08T09:00:54;100535.31;;;27.27;12.94
49825;BME280;35714;55.708;37.478;2023-04-08T09:03:21;100529.97;;;27.88;12.51
49825;BME280;35714;55.708;37.478;2023-04-08T09:08:34;100528.09;;;28.06;11.24
49825;BME280;35714;55.708;37.478;2023-04-08T09:11:17;100524.13;;;27.99;11.70
49825;BME280;35714;55.708;37.478;2023-04-08T09:13:43;100529.41;;;28.00;11.48
49825;BME280;35714;55.708;37.478;2023-04-08T09:16:14;100529.41;;;28.35;11.91
49825;BME280;35714;55.708;37.478;2023-04-08T09:18:46;100546.78;;;28.85;11.77
49825;BME280;35714;55.708;37.478;2023-04-08T09:21:14;100534.03;;;28.49;10.41
49825;BME280;35714;55.708;37.478;2023-04-08T09:23:44;100527.38;;;27.34;10.88
49825;BME280;35714;55.708;37.478;2023-04-08T09:28:39;100521.78;;;27.34;11.75
49825;BME280;35714;55.708;37.478;2023-04-08T09:33:42;100522.03;;;28.13;11.49
49825;BME280;35714;55.708;37.478;2023-04-08T09:36:08;100524.81;;;28.39;11.05
49825;BME280;35714;55.708;37.478;2023-04-08T09:38:34;100529.09;;;28.63;10.96
49825;BME280;35714;55.708;37.478;2023-04-08T09:41:04;100521.13;;;29.00;10.05
49825;BME280;35714;55.708;37.478;2023-04-08T09:43:33;100519.28;;;29.13;10.83
49825;BME280;35714;55.708;37.478;2023-04-08T09:46:01;100516.88;;;29.50;10.62
49825;BME280;35714;55.708;37.478;2023-04-08T09:48:31;100515.09;;;29.75;9.83
49825;BME280;35714;55.708;37.478;2023-04-08T09:51:03;100534.25;;;29.94;9.52
49825;BME280;35714;55.708;37.478;2023-04-08T09:53:34;100525.59;;;29.48;10.36
49825;BME280;35714;55.708;37.478;2023-04-08T09:56:01;100527.41;;;29.44;10.13
49825;BME280;35714;55.708;37.478;2023-04-08T09:58:41;100522.53;;;29.32;9.82
49825;BME280;35714;55.708;37.478;2023-04-08T10:01:13;100529.25;;;29.40;10.21
49825;BME280;35714;55.708;37.478;2023-04-08T10:03:53;100519.28;;;29.60;10.03
49825;BME280;35714;55.708;37.478;2023-04-08T10:06:20;100523.53;;;29.96;9.94
49825;BME280;35714;55.708;37.478;2023-04-08T10:08:47;100518.97;;;30.34;9.65
49825;BME280;35714;55.708;37.478;2023-04-08T10:11:14;100511.78;;;30.66;9.59
49825;BME280;35714;55.708;37.478;2023-04-08T10:13:41;100506.69;;;31.02;9.53
49825;BME280;35714;55.708;37.478;2023-04-08T10:18:47;100502.44;;;30.95;9.48
49825;BME280;35714;55.708;37.478;2023-04-08T10:21:31;100506.47;;;31.19;8.59
49825;BME280;35714;55.708;37.478;2023-04-08T10:23:57;100513.59;;;30.29;8.78
49825;BME280;35714;55.708;37.478;2023-04-08T10:26:41;100500.09;;;29.50;9.85
49825;BME280;35714;55.708;37.478;2023-04-08T10:31:45;100493.47;;;29.63;9.89
49825;BME280;35714;55.708;37.478;2023-04-08T10:36:42;100513.19;;;29.97;9.67
49825;BME280;35714;55.708;37.478;2023-04-08T10:39:08;100496.53;;;29.79;9.41
49825;BME280;35714;55.708;37.478;2023-04-08T10:41:34;100503.53;;;29.56;9.68
49825;BME280;35714;55.708;37.478;2023-04-08T10:44:03;100501.84;;;29.33;9.46
49825;BME280;35714;55.708;37.478;2023-04-08T10:46:36;100497.75;;;28.66;10.00
49825;BME280;35714;55.708;37.478;2023-04-08T10:49:02;100503.31;;;28.22;10.49
49825;BME280;35714;55.708;37.478;2023-04-08T10:51:31;100489.28;;;27.61;10.62
49825;BME280;35714;55.708;37.478;2023-04-08T10:54:08;100481.56;;;27.18;10.93
49825;BME280;35714;55.708;37.478;2023-04-08T10:56:51;100492.41;;;26.88;11.19
49825;BME280;35714;55.708;37.478;2023-04-08T10:59:31;100482.09;;;26.89;11.92
49825;BME280;35714;55.708;37.478;2023-04-08T11:01:57;100478.16;;;27.79;11.41
49825;BME280;35714;55.708;37.478;2023-04-08T11:04:24;100476.47;;;29.00;11.01
49825;BME280;35714;55.708;37.478;2023-04-08T11:06:50;100474.97;;;30.01;10.01
49825;BME280;35714;55.708;37.478;2023-04-08T11:09:15;100479.03;;;30.79;10.30
49825;BME280;35714;55.708;37.478;2023-04-08T11:11:42;100468.75;;;31.41;9.40
49825;BME280;35714;55.708;37.478;2023-04-08T11:14:08;100457.53;;;31.66;9.68
49825;BME280;35714;55.708;37.478;2023-04-08T11:16:35;100460.22;;;31.75;9.01
49825;BME280;35714;55.708;37.478;2023-04-08T11:19:03;100465.91;;;31.78;9.21
49825;BME280;35714;55.708;37.478;2023-04-08T11:21:30;100454.25;;;31.76;9.33
49825;BME280;35714;55.708;37.478;2023-04-08T11:23:57;100462.75;;;31.92;8.73
49825;BME280;35714;55.708;37.478;2023-04-08T11:26:24;100446.91;;;31.35;9.07
49825;BME280;35714;55.708;37.478;2023-04-08T11:28:50;100461.75;;;31.35;9.33
49825;BME280;35714;55.708;37.478;2023-04-08T11:31:17;100452.75;;;31.66;8.98
49825;BME280;35714;55.708;37.478;2023-04-08T11:33:47;100452.19;;;32.01;8.96
49825;BME280;35714;55.708;37.478;2023-04-08T11:36:15;100461.31;;;32.11;8.46
49825;BME280;35714;55.708;37.478;2023-04-08T11:38:42;100451.47;;;31.27;8.43
49825;BME280;35714;55.708;37.478;2023-04-08T11:41:08;100446.78;;;30.61;8.72
49825;BME280;35714;55.708;37.478;2023-04-08T11:43:34;100455.88;;;30.57;9.14
49825;BME280;35714;55.708;37.478;2023-04-08T11:46:10;100447.13;;;29.83;9.56
49825;BME280;35714;55.708;37.478;2023-04-08T11:48:37;100443.00;;;29.60;9.90
49825;BME280;35714;55.708;37.478;2023-04-08T11:51:04;100444.94;;;30.10;10.38
49825;BME280;35714;55.708;37.478;2023-04-08T11:53:33;100432.78;;;30.48;9.74
49825;BME280;35714;55.708;37.478;2023-04-08T11:56:17;100430.09;;;30.98;9.85
49825;BME280;35714;55.708;37.478;2023-04-08T11:58:43;100431.25;;;31.46;9.49
49825;BME280;35714;55.708;37.478;2023-04-08T12:01:09;100431.38;;;31.74;9.41
49825;BME280;35714;55.708;37.478;2023-04-08T12:03:35;100420.75;;;31.96;9.29
49825;BME280;35714;55.708;37.478;2023-04-08T12:06:01;100436.28;;;32.06;9.01
49825;BME280;35714;55.708;37.478;2023-04-08T12:08:27;100432.16;;;31.75;8.70
49825;BME280;35714;55.708;37.478;2023-04-08T12:10:52;100426.63;;;31.13;8.88
49825;BME280;35714;55.708;37.478;2023-04-08T12:13:18;100420.88;;;30.51;9.23
49825;BME280;35714;55.708;37.478;2023-04-08T12:15:44;100419.09;;;29.41;9.91
49825;BME280;35714;55.708;37.478;2023-04-08T12:18:09;100417.78;;;28.70;10.73
49825;BME280;35714;55.708;37.478;2023-04-08T12:20:35;100424.69;;;28.64;10.82
49825;BME280;35714;55.708;37.478;2023-04-08T12:23:01;100422.31;;;28.19;11.16
49825;BME280;35714;55.708;37.478;2023-04-08T12:25:26;100421.41;;;28.62;10.96
49825;BME280;35714;55.708;37.478;2023-04-08T12:27:52;100413.06;;;29.01;10.69
49825;BME280;35714;55.708;37.478;2023-04-08T12:30:17;100409.72;;;29.46;10.45
49825;BME280;35714;55.708;37.478;2023-04-08T12:32:43;100401.94;;;29.81;9.96
49825;BME280;35714;55.708;37.478;2023-04-08T12:35:10;100409.47;;;29.60;9.86
49825;BME280;35714;55.708;37.478;2023-04-08T12:37:36;100411.34;;;29.17;10.70
49825;BME280;35714;55.708;37.478;2023-04-08T12:40:01;100408.22;;;29.48;10.50
49825;BME280;35714;55.708;37.478;2023-04-08T12:42:28;100393.19;;;30.04;10.50
49825;BME280;35714;55.708;37.478;2023-04-08T12:44:54;100403.31;;;30.30;10.28
49825;BME280;35714;55.708;37.478;2023-04-08T12:47:19;100395.00;;;30.42;10.28
49825;BME280;35714;55.708;37.478;2023-04-08T12:49:45;100401.41;;;30.43;10.00
49825;BME280;35714;55.708;37.478;2023-04-08T12:52:11;100395.59;;;30.27;10.10
49825;BME280;35714;55.708;37.478;2023-04-08T12:54:37;100388.28;;;29.80;10.02
49825;BME280;35714;55.708;37.478;2023-04-08T12:57:03;100381.88;;;29.28;10.27
49825;BME280;35714;55.708;37.478;2023-04-08T12:59:28;100384.97;;;29.06;10.61
49825;BME280;35714;55.708;37.478;2023-04-08T13:01:54;100385.41;;;29.16;10.88
49825;BME280;35714;55.708;37.478;2023-04-08T13:04:20;100377.50;;;29.48;10.79
49825;BME280;35714;55.708;37.478;2023-04-08T13:06:46;100375.91;;;29.39;10.82
49825;BME280;35714;55.708;37.478;2023-04-08T13:09:11;100385.22;;;28.27;11.22